地図

経路データ

SID SEASON NUMBER BASIN SUBBASIN NAME ISO_TIME NATURE LAT LON WMO_WIND WMO_PRES WMO_AGENCY TRACK_TYPE DIST2LAND LANDFALL IFLAG USA_AGENCY USA_ATCF_ID USA_LAT USA_LON USA_RECORD USA_STATUS USA_WIND USA_PRES USA_SSHS USA_R34_NE USA_R34_SE USA_R34_SW USA_R34_NW USA_R50_NE USA_R50_SE USA_R50_SW USA_R50_NW USA_R64_NE USA_R64_SE USA_R64_SW USA_R64_NW USA_POCI USA_ROCI USA_RMW USA_EYE TOKYO_LAT TOKYO_LON TOKYO_GRADE TOKYO_WIND TOKYO_PRES TOKYO_R50_DIR TOKYO_R50_LONG TOKYO_R50_SHORT TOKYO_R30_DIR TOKYO_R30_LONG TOKYO_R30_SHORT TOKYO_LAND CMA_LAT CMA_LON CMA_CAT CMA_WIND CMA_PRES HKO_LAT HKO_LON HKO_CAT HKO_WIND HKO_PRES NEWDELHI_LAT NEWDELHI_LON NEWDELHI_GRADE NEWDELHI_WIND NEWDELHI_PRES NEWDELHI_CI NEWDELHI_DP NEWDELHI_POCI REUNION_LAT REUNION_LON REUNION_TYPE REUNION_WIND REUNION_PRES REUNION_TNUM REUNION_CI REUNION_RMW REUNION_R34_NE REUNION_R34_SE REUNION_R34_SW REUNION_R34_NW REUNION_R50_NE REUNION_R50_SE REUNION_R50_SW REUNION_R50_NW REUNION_R64_NE REUNION_R64_SE REUNION_R64_SW REUNION_R64_NW BOM_LAT BOM_LON BOM_TYPE BOM_WIND BOM_PRES BOM_TNUM BOM_CI BOM_RMW BOM_R34_NE BOM_R34_SE BOM_R34_SW BOM_R34_NW BOM_R50_NE BOM_R50_SE BOM_R50_SW BOM_R50_NW BOM_R64_NE BOM_R64_SE BOM_R64_SW BOM_R64_NW BOM_ROCI BOM_POCI BOM_EYE BOM_POS_METHOD BOM_PRES_METHOD NADI_LAT NADI_LON NADI_CAT NADI_WIND NADI_PRES WELLINGTON_LAT WELLINGTON_LON WELLINGTON_WIND WELLINGTON_PRES DS824_LAT DS824_LON DS824_STAGE DS824_WIND DS824_PRES TD9636_LAT TD9636_LON TD9636_STAGE TD9636_WIND TD9636_PRES TD9635_LAT TD9635_LON TD9635_WIND TD9635_PRES TD9635_ROCI NEUMANN_LAT NEUMANN_LON NEUMANN_CLASS NEUMANN_WIND NEUMANN_PRES MLC_LAT MLC_LON MLC_CLASS MLC_WIND MLC_PRES USA_GUST BOM_GUST BOM_GUST_PER REUNION_GUST REUNION_GUST_PER USA_SEAHGT USA_SEARAD_NE USA_SEARAD_SE USA_SEARAD_SW USA_SEARAD_NW STORM_SPEED STORM_DIR
1953105S10143 1953 20 SP EA NOT_NAMED 1953-04-14 20:00:00 NR -10.4000 142.600 1003 bom main 46 24 ______O_______ -1 -10.4000 142.600 1003 26 241
1953105S10143 1953 20 SP EA NOT_NAMED 1953-04-14 21:00:00 NR -10.6113 142.220 main 31 24 ______P_______ -1 -10.6113 142.220 1003 24 241
1953105S10143 1953 20 SP EA NOT_NAMED 1953-04-14 23:00:00 NR -10.9750 141.550 1003 bom main 54 54 ______O___O___ -1 -11.0000 141.500 1003 -10.9000 141.700 7 19 244
1953105S10143 1953 20 SP EA NOT_NAMED 1953-04-15 00:00:00 TS -11.0294 141.348 main 87 87 O_____P__OP___ jtwc_sh SH211953 -10.9000 141.500 -1 -11.1628 141.180 -10.9000 141.500 TC -10.8922 141.533 7 11 261
1953105S10143 1953 20 SP EA NOT_NAMED 1953-04-15 03:00:00 TS -11.0932 140.789 main 142 142 P_____P__PP___ SH211953 -10.8401 141.002 -1 -11.5152 140.393 -10.8401 141.002 TC -10.8681 141.033 7 10 268
1953105S10143 1953 20 SP EA NOT_NAMED 1953-04-15 06:00:00 TS -11.0668 140.317 main 196 196 O_____P__OP___ jtwc_sh SH211953 -10.8000 140.500 -1 -11.6906 139.825 -10.8000 140.500 TC -10.8432 140.533 7 9 274
1953105S10143 1953 20 SP EA NOT_NAMED 1953-04-15 09:00:00 TS -11.0313 139.861 main 237 237 P_____P__PP___ SH211953 -10.7925 139.993 -1 -11.7226 139.425 -10.7925 139.993 TC -10.8176 140.033 7 9 274
1953105S10143 1953 20 SP EA NOT_NAMED 1953-04-15 11:00:00 TS -11.0188 139.562 main 260 260 P_____P__PO___ SH211953 -10.7974 139.661 -1 -11.6805 139.227 -10.7974 139.661 TC -10.8000 139.700 7 9 269
1953105S10143 1953 20 SP EA NOT_NAMED 1953-04-15 12:00:00 TS -11.0413 139.412 main 274 262 O_____P__OP___ jtwc_sh SH211953 -10.8000 139.500 -1 -11.6441 139.142 -10.8000 139.500 TC -10.8004 139.550 7 8 269
1953105S10143 1953 20 SP EA NOT_NAMED 1953-04-15 15:00:00 TS -11.0304 139.021 main 262 235 P_____P__PP___ SH211953 -10.8021 139.048 -1 -11.4875 138.924 -10.8026 139.040 TC -10.8012 139.100 7 7 272
1953105S10143 1953 20 SP EA NOT_NAMED 1953-04-15 18:00:00 TS -11.0160 138.669 main 235 210 O_____P__OP___ jtwc_sh SH211953 -10.8000 138.600 -1 -11.2850 138.718 -10.8000 138.600 TC -10.8013 138.650 7 6 275
1953105S10143 1953 20 SP EA NOT_NAMED 1953-04-15 21:00:00 NR -10.9791 138.382 main 210 203 P_____P___P___ SH211953 -10.6992 138.087 -1 -11.0683 138.472 TC -10.8007 138.200 7 6 283
1953105S10143 1953 20 SP EA NOT_NAMED 1953-04-15 23:00:00 NR -10.9054 138.189 main 204 204 P_____P___O___ SH211953 -10.5955 137.720 -1 -10.9318 138.261 TC -10.8000 137.900 7 5 294
1953105S10143 1953 20 SP EA NOT_NAMED 1953-04-15 23:30:00 NR -10.9000 138.200 1002 bom main 204 197 P_____O_______ SH211953 -10.5662 137.625 -1 -10.9000 138.200 1002 4 TC 7 5 282
1953105S10143 1953 20 SP EA NOT_NAMED 1953-04-16 00:00:00 NR -10.8866 138.100 main 197 173 P_____P_______ SH211953 -10.5357 137.530 -1 -10.8866 138.100 7 13 278
1953105S10143 1953 20 SP EA NOT_NAMED 1953-04-16 03:00:00 NR -10.7942 137.461 main 173 149 P_____P_______ SH211953 -10.3372 136.938 -1 -10.7942 137.461 7 13 279
1953105S10143 1953 20 SP EA NOT_NAMED 1953-04-16 06:00:00 NR -10.6882 136.767 main 149 145 P_____P_______ SH211953 -10.1313 136.323 -1 -10.6882 136.767 7 14 279
1953105S10143 1953 20 SP EA NOT_NAMED 1953-04-16 09:00:00 NR -10.5781 136.032 main 166 166 P_____P_______ SH211953 -9.94574 135.695 -1 -10.5781 136.032 7 15 278
1953105S10143 1953 20 SP EA NOT_NAMED 1953-04-16 12:00:00 NR -10.4734 135.268 main 182 174 P_____P_______ SH211953 -9.80840 135.064 -1 -10.4734 135.268 15 277
1953105S10143 1953 20 SI WA NOT_NAMED 1953-04-16 15:00:00 NR -10.3839 134.487 main 174 151 P_____P_______ SH211953 -9.74717 134.440 -1 -10.3839 134.487 15 276
1953105S10143 1953 20 SI WA NOT_NAMED 1953-04-16 18:00:00 NR -10.3196 133.704 main 151 123 P_____P_______ SH211953 -9.78999 133.831 -1 -10.3196 133.704 15 273
1953105S10143 1953 20 SI WA NOT_NAMED 1953-04-16 21:00:00 NR -10.2903 132.929 main 120 103 P_____P_______ SH211953 -9.96490 133.248 -1 -10.2903 132.929 14 273
1953105S10143 1953 20 SI WA NOT_NAMED 1953-04-16 23:00:00 NR -10.2562 132.519 main 103 103 P_____P_______ SH211953 -10.1688 132.878 -1 -10.2953 132.424 11 273
1953105S10143 1953 20 SI WA NOT_NAMED 1953-04-16 23:30:00 NR -10.2654 132.472 985 bom main 103 103 P_____O_______ SH211953 -10.2318 132.789 -1 -10.3000 132.300 985 4 229
1953105S10143 1953 20 SI WA NOT_NAMED 1953-04-17 00:00:00 TS -10.3012 132.463 main 103 56 O_____P_______ jtwc_sh SH221953 -10.3000 132.700 -1 -10.3088 132.182 12 233
1953105S10143 1953 20 SI WA NOT_NAMED 1953-04-17 03:00:00 TS -10.6778 131.922 main 57 35 P_____P_______ SH221953 -10.8737 132.205 -1 -10.3879 131.480 13 236
1953105S10143 1953 20 SI WA NOT_NAMED 1953-04-17 06:00:00 TS -11.0437 131.353 main 35 11 O_____P_______ jtwc_sh SH221953 -11.4000 131.700 -1 -10.5075 130.789 13 240
1953105S10143 1953 20 SI WA NOT_NAMED 1953-04-17 09:00:00 TS -11.3341 130.775 main 11 0 P_____P_______ SH221953 -11.7323 131.172 -1 -10.6615 130.109 13 246
1953105S10143 1953 20 SI WA NOT_NAMED 1953-04-17 11:00:00 TS -11.4664 130.370 main 10 0 P_____P_______ SH221953 -11.8609 130.797 -1 -10.7804 129.662 13 253
1953105S10143 1953 20 SI WA NOT_NAMED 1953-04-17 12:00:00 TS -11.5173 130.163 main 0 0 O_____P_______ jtwc_sh SH221953 -11.9000 130.600 -1 -10.8440 129.440 13 259
1953105S10143 1953 20 SI WA NOT_NAMED 1953-04-17 15:00:00 TS -11.6210 129.522 main 66 66 P_____P_______ SH221953 -11.9374 129.965 -1 -11.0490 128.784 13 263
1953105S10143 1953 20 SI WA NOT_NAMED 1953-04-17 18:00:00 TS -11.6789 128.868 main 131 131 O_____P_______ jtwc_sh SH221953 -11.9000 129.300 -1 -11.2706 128.141 13 265
1953105S10143 1953 20 SI WA NOT_NAMED 1953-04-17 21:00:00 TS -11.7426 128.226 main 207 206 P_____P_______ SH221953 -11.8847 128.665 -1 -11.5027 127.512 12 263
1953105S10143 1953 20 SI WA NOT_NAMED 1953-04-17 23:00:00 TS -11.8034 127.823 main 236 236 P_____P_______ SH221953 -11.8884 128.228 -1 -11.6605 127.102 11 260
1953105S10143 1953 20 SI WA NOT_NAMED 1953-04-17 23:30:00 TS -11.8273 127.747 985 bom main 233 233 P_____O_______ SH221953 -11.8932 128.115 -1 -11.7000 127.000 985 9 252
1953105S10143 1953 20 SI WA NOT_NAMED 1953-04-18 00:00:00 TS -11.8504 127.670 main 222 201 O_____P_______ jtwc_sh SH221953 -11.9000 128.000 -1 -11.7353 126.891 13 260
1953105S10143 1953 20 SI WA NOT_NAMED 1953-04-18 03:00:00 TS -11.9601 126.995 main 201 195 P_____P_______ SH221953 -11.9774 127.265 -1 -11.9544 126.242 14 260
1953105S10143 1953 20 SI WA NOT_NAMED 1953-04-18 06:00:00 TS -12.0969 126.262 main 201 201 O_____P_______ jtwc_sh SH221953 -12.1000 126.500 -1 -12.1841 125.604 15 259
1953105S10143 1953 20 SI WA NOT_NAMED 1953-04-18 09:00:00 TS -12.2412 125.542 main 211 201 P_____P_______ SH221953 -12.1973 125.750 -1 -12.4215 124.982 14 256
1953105S10143 1953 20 SI WA NOT_NAMED 1953-04-18 11:00:00 TS -12.3772 125.070 main 209 209 P_____P_______ SH221953 -12.3130 125.250 -1 -12.5826 124.579 15 252
1953105S10143 1953 20 SI WA NOT_NAMED 1953-04-18 12:00:00 TS -12.4679 124.832 main 219 218 O_____P_______ jtwc_sh SH221953 -12.4000 125.000 -1 -12.6637 124.383 16 244
1953105S10143 1953 20 SI WA NOT_NAMED 1953-04-18 15:00:00 TS -12.8352 124.107 main 233 224 P_____P_______ SH221953 -12.8126 124.213 -1 -12.9079 123.812 16 240
1953105S10143 1953 20 SI WA NOT_NAMED 1953-04-18 18:00:00 TS -13.2553 123.442 main 242 242 O_____P_______ jtwc_sh SH221953 -13.3000 123.500 -1 -13.1512 123.277 15 236
1953105S10143 1953 20 SI WA NOT_NAMED 1953-04-18 21:00:00 TS -13.6485 122.877 main 272 271 P_____P_______ SH221953 -13.7374 122.910 -1 -13.3909 122.783 13 233
1953105S10143 1953 20 SI WA NOT_NAMED 1953-04-18 23:00:00 TS -13.8829 122.577 main 271 271 P_____P_______ SH221953 -13.9921 122.614 -1 -13.5473 122.480 11 231
1953105S10143 1953 20 SI WA NOT_NAMED 1953-04-19 00:00:00 TS -13.9817 122.455 main 271 271 O_____P_______ jtwc_sh SH221953 -14.1000 122.500 -1 -13.6241 122.337 9 230
1953105S10143 1953 20 SI WA NOT_NAMED 1953-04-19 01:00:00 TS -14.0677 122.350 985 bom main 276 268 P_____O_______ SH221953 -14.1868 122.405 -1 -13.7000 122.200 985 7 228
1953105S10143 1953 20 SI WA NOT_NAMED 1953-04-19 03:00:00 TS -14.2121 122.189 main 268 250 P_____P_______ SH221953 -14.3223 122.282 -1 -13.8363 121.937 5 222
1953105S10143 1953 20 SI WA NOT_NAMED 1953-04-19 06:00:00 TS -14.4050 122.034 main 254 233 O_____P_______ jtwc_sh SH221953 -14.5000 122.200 -1 -14.0352 121.585 5 213
1953105S10143 1953 20 SI WA NOT_NAMED 1953-04-19 09:00:00 TS -14.6265 121.916 main 238 218 P_____P_______ SH221953 -14.7500 122.135 -1 -14.2298 121.279 5 205
1953105S10143 1953 20 SI WA NOT_NAMED 1953-04-19 11:00:00 TS -14.7745 121.855 main 218 218 P_____P_______ SH221953 -14.9197 122.111 -1 -14.3584 121.097 5 203
1953105S10143 1953 20 SI WA NOT_NAMED 1953-04-19 12:00:00 TS -14.8488 121.823 main 223 205 O_____P_______ jtwc_sh SH221953 -15.0000 122.100 -1 -14.4227 121.013 5 203
1953105S10143 1953 20 SI WA NOT_NAMED 1953-04-19 15:00:00 TS -15.0541 121.735 main 202 194 P_____P_______ SH221953 -15.2075 122.065 -1 -14.6164 120.782 4 204
1953105S10143 1953 20 SI WA NOT_NAMED 1953-04-19 18:00:00 TS -15.2506 121.639 main 193 185 O_____P_______ jtwc_sh SH221953 -15.4000 122.000 -1 -14.8135 120.582 5 208
1953105S10143 1953 20 SI WA NOT_NAMED 1953-04-19 21:00:00 TS -15.4530 121.514 main 185 185 P_____P_______ SH221953 -15.6075 121.880 -1 -15.0163 120.406 5 214
1953105S10143 1953 20 SI WA NOT_NAMED 1953-04-19 23:00:00 TS -15.5835 121.408 main 185 185 P_____P_______ SH221953 -15.7390 121.767 -1 -15.1560 120.299 6 233
1953105S10143 1953 20 SI WA NOT_NAMED 1953-04-20 00:00:00 TS -15.6195 121.285 main 193 193 O_____P_______ jtwc_sh SH221953 -15.8000 121.700 -1 -15.2274 120.249 7 252
1953105S10143 1953 20 SI WA NOT_NAMED 1953-04-20 01:00:00 TS -15.6571 121.164 980 bom main 193 193 P_____O_______ SH221953 -15.8583 121.631 -1 -15.3000 120.200 980 4 7 248
1953105S10143 1953 20 SI WA NOT_NAMED 1953-04-20 03:00:00 TS -15.7482 120.957 main 209 208 P_____P_______ SH221953 -15.9650 121.472 -1 -15.4227 120.056 6 244
1953105S10143 1953 20 SI WA NOT_NAMED 1953-04-20 06:00:00 TS -15.8882 120.661 main 217 217 O_____P_______ jtwc_sh SH221953 -16.1000 121.200 -1 -15.6074 119.852 6 241
1953105S10143 1953 20 SI WA NOT_NAMED 1953-04-20 09:00:00 TS -16.0358 120.410 main 237 231 P_____P_______ SH221953 -16.2000 120.915 -1 -15.8003 119.670 6 238
1953105S10143 1953 20 SI WA NOT_NAMED 1953-04-20 11:00:00 TS -16.1374 120.241 main 250 245 P_____P_______ SH221953 -16.2635 120.708 -1 -15.9373 119.563 6 238
1953105S10143 1953 20 SI WA NOT_NAMED 1953-04-20 12:00:00 TS -16.1878 120.154 main 245 245 O_____P_______ jtwc_sh SH221953 -16.3000 120.600 -1 -16.0093 119.515 6 237
1953105S10143 1953 20 SI WA NOT_NAMED 1953-04-20 15:00:00 TS -16.3524 119.894 main 264 264 P_____P_______ SH221953 -16.4275 120.257 -1 -16.2426 119.393 6 233
1953105S10143 1953 20 SI WA NOT_NAMED 1953-04-20 18:00:00 TS -16.5556 119.644 main 287 287 O_____P_______ jtwc_sh SH221953 -16.6000 119.900 -1 -16.5084 119.310 6 226
1953105S10143 1953 20 SI WA NOT_NAMED 1953-04-20 21:00:00 TS -16.7945 119.412 main 300 297 P_____P_______ SH221953 -16.7751 119.520 -1 -16.8146 119.271 7 217
1953105S10143 1953 20 SI WA NOT_NAMED 1953-04-20 23:00:00 TS -17.0099 119.289 main 304 302 P_____P_______ SH221953 -16.9658 119.294 -1 -17.0453 119.273 8 205
1953105S10143 1953 20 SI WA NOT_NAMED 1953-04-21 00:00:00 TS -17.1449 119.239 main 312 301 O_____P_______ jtwc_sh SH221953 -17.1000 119.200 -1 -17.1695 119.283 9 197
1953105S10143 1953 20 SI WA NOT_NAMED 1953-04-21 01:00:00 TS -17.2999 119.195 980 bom main 301 278 P_____O_______ SH221953 -17.2683 119.114 -1 -17.3000 119.300 980 10 191
1953105S10143 1953 20 SI WA NOT_NAMED 1953-04-21 03:00:00 TS -17.6555 119.135 main 267 212 P_____P_______ SH221953 -17.6824 118.983 -1 -17.5687 119.337 12 184
1953105S10143 1953 20 SI WA NOT_NAMED 1953-04-21 06:00:00 TS -18.2603 119.123 main 201 134 O_____P_______ jtwc_sh SH221953 -18.4000 118.900 -1 -18.0123 119.437 12 178
1953105S10143 1953 20 SI WA NOT_NAMED 1953-04-21 09:00:00 TS -18.8868 119.200 main 134 89 P_____P_______ SH221953 -19.1074 118.925 -1 -18.5013 119.586 13 170
1953105S10143 1953 20 SI WA NOT_NAMED 1953-04-21 11:00:00 TS -19.3099 119.313 main 89 67 P_____P_______ SH221953 -19.5754 119.025 -1 -18.8509 119.711 13 164
1953105S10143 1953 20 SI WA NOT_NAMED 1953-04-21 12:00:00 TS -19.5182 119.388 main 67 0 O_____P_______ jtwc_sh SH221953 -19.8000 119.100 -1 -19.0324 119.780 13 154
1953105S10143 1953 20 SI WA NOT_NAMED 1953-04-21 15:00:00 TS -20.0901 119.711 main 0 0 P_____P_______ SH221953 -20.4228 119.412 -1 -19.6021 120.014 13 149
1953105S10143 1953 20 SI WA NOT_NAMED 1953-04-21 16:00:00 TS -20.2462 119.861 980 bom main 0 0 P_____O_______ SH221953 -20.6180 119.536 -1 -19.8000 120.100 980 13 138
1953105S10143 1953 20 SI WA NOT_NAMED 1953-04-21 18:00:00 TS -20.5523 120.160 main 0 0 O_____P_______ jtwc_sh SH221953 -21.0000 119.800 -1 -20.2067 120.283 985 13 139
1953105S10143 1953 20 SI WA NOT_NAMED 1953-04-21 21:00:00 TS -21.0320 120.593 main 0 0 ______P_______ SH221953 -1 -20.8377 120.580 992 13 144
1953105S10143 1953 20 SI WA NOT_NAMED 1953-04-21 23:00:00 TS -21.3993 120.830 main 0 0 ______P_______ SH221953 -1 -21.2673 120.788 997 11 148
1953105S10143 1953 20 SI WA NOT_NAMED 1953-04-22 00:00:00 TS -21.4890 120.896 main 0 0 ______P_______ -1 -21.4835 120.893 1000 10 152
1953105S10143 1953 20 SI WA NOT_NAMED 1953-04-22 01:00:00 NR -21.7000 121.000 1003 bom main 0 ______O_______ -1 -21.7000 121.000 1003 14 156

デジタル台風データ・検索

IBTrACS Databaseについて

本データベースは、米国NOAAが公開する1842年以降の世界の熱帯低気圧のベストトラックデータアーカイブInternational Best Track Archive for Climate Stewardship (IBTrACS)を、ウェブで閲覧しやすい形式に変換したものです。

最終更新日:2021-12-03